Time;durP1;ratioP1;P1;durP2;ratioP2;P2;SDS_P1;SDS_P2;PMS_P1;PMS_P2;Temp;Humidity;BMP_temperature;BMP_pressure;BME280_temperature;BME280_humidity;BME280_pressure;Samples;Min_cycle;Max_cycle;Signal;HPM_P1;HPM_P2
2022/07/02 00:02:08;;;;;;;8.40;4.40;;;;;;;22.94;53.06;101059.43;106684;1257;74803;-84
2022/07/02 00:04:44;;;;;;;12.70;5.00;;;;;;;22.88;53.60;101057.59;106796;1256;58999;-85
2022/07/02 00:07:14;;;;;;;6.90;4.60;;;;;;;22.82;53.51;101058.64;106625;1257;59067;-84
2022/07/02 00:09:43;;;;;;;13.30;4.50;;;;;;;22.75;53.89;101058.90;106635;1258;63076;-84
2022/07/02 00:12:13;;;;;;;6.80;4.10;;;;;;;22.70;53.94;101063.87;106600;1259;60943;-86
2022/07/02 00:14:42;;;;;;;10.50;4.70;;;;;;;22.66;54.57;101063.48;106573;1256;59269;-85
2022/07/02 00:17:12;;;;;;;11.60;4.50;;;;;;;22.63;54.92;101062.08;106712;1257;63230;-82
2022/07/02 00:19:41;;;;;;;7.20;4.90;;;;;;;22.61;55.13;101062.66;106611;1257;61452;-82
2022/07/02 00:22:11;;;;;;;10.20;4.50;;;;;;;22.58;55.56;101063.92;106637;1257;59003;-87
2022/07/02 00:24:41;;;;;;;9.20;4.90;;;;;;;22.56;55.72;101059.96;106514;1258;62304;-75
2022/07/02 00:27:14;;;;;;;11.80;4.70;;;;;;;22.55;55.74;101062.03;106421;1258;72319;-82
2022/07/02 00:30:03;;;;;;;;;;;;;;;22.54;55.63;101067.10;106354;1260;60927;-86
2022/07/02 00:32:35;;;;;;;9.20;4.50;;;;;;;22.53;54.73;101069.50;106298;1258;73982;-81
2022/07/02 00:35:08;;;;;;;7.70;4.40;;;;;;;22.53;55.37;101072.23;106247;1260;59072;-81
2022/07/02 00:37:38;;;;;;;5.80;4.90;;;;;;;22.51;56.05;101075.40;106222;1260;59215;-82
2022/07/02 00:40:08;;;;;;;6.50;4.50;;;;;;;22.49;56.30;101076.35;106189;1259;63035;-79
2022/07/02 00:42:37;;;;;;;9.10;5.00;;;;;;;22.47;56.64;101076.73;106315;1258;61541;-81
2022/07/02 00:45:07;;;;;;;8.40;5.10;;;;;;;22.45;56.97;101080.46;106599;1256;60443;-80
2022/07/02 00:47:38;;;;;;;9.40;4.90;;;;;;;22.42;57.46;101078.70;106399;1258;74071;-80
2022/07/02 00:50:08;;;;;;;10.30;4.80;;;;;;;22.39;57.42;101080.23;106477;1259;61382;-83
2022/07/02 00:52:36;;;;;;;5.50;4.70;;;;;;;22.37;57.20;101076.89;106481;1258;58683;-84
2022/07/02 00:55:06;;;;;;;24.10;5.40;;;;;;;22.34;57.12;101076.52;106480;1259;63066;-84
2022/07/02 00:57:35;;;;;;;7.50;4.30;;;;;;;22.31;57.40;101078.07;106427;1258;71552;-85
2022/07/02 01:00:08;;;;;;;9.70;4.90;;;;;;;22.29;57.67;101072.26;106449;1258;69719;-83
2022/07/02 01:02:38;;;;;;;12.10;5.00;;;;;;;22.26;57.83;101079.37;106215;1260;62970;-81
2022/07/02 01:05:08;;;;;;;6.20;4.90;;;;;;;22.21;56.60;101084.59;106204;1259;61653;-81
2022/07/02 01:07:40;;;;;;;11.40;5.00;;;;;;;22.11;57.70;101087.48;107149;1257;61808;-84
2022/07/02 01:10:19;;;;;;;9.90;5.60;;;;;;;22.00;59.20;101084.39;106347;1260;62983;-84
2022/07/02 01:12:50;;;;;;;8.20;4.80;;;;;;;21.88;60.01;101085.69;106208;1259;72378;-83
2022/07/02 01:15:18;;;;;;;12.90;5.10;;;;;;;21.81;60.53;101084.36;106332;1259;60651;-84
2022/07/02 01:17:47;;;;;;;9.60;5.10;;;;;;;21.76;60.82;101088.19;106506;1257;74323;-83
2022/07/02 01:20:16;;;;;;;16.00;5.50;;;;;;;21.69;60.89;101090.71;106309;1259;59161;-85
2022/07/02 01:22:45;;;;;;;14.40;5.60;;;;;;;21.62;60.69;101092.90;106439;1257;59170;-83
2022/07/02 01:25:14;;;;;;;13.00;5.50;;;;;;;21.55;61.78;101096.23;106430;1257;74105;-82
2022/07/02 01:27:42;;;;;;;8.30;5.40;;;;;;;21.48;61.67;101095.75;106113;1257;73087;-85
2022/07/02 01:30:12;;;;;;;9.60;5.10;;;;;;;21.44;61.45;101097.51;106458;1258;69355;-85
2022/07/02 01:32:41;;;;;;;8.80;4.90;;;;;;;21.38;61.11;101096.83;106496;1257;63841;-85
2022/07/02 01:35:10;;;;;;;7.30;4.90;;;;;;;21.33;61.65;101102.06;106633;1257;61258;-84
2022/07/02 01:37:40;;;;;;;6.60;5.50;;;;;;;21.27;63.08;101099.87;106633;1257;61108;-82
2022/07/02 01:40:10;;;;;;;7.50;5.30;;;;;;;21.22;62.98;101104.20;106565;1257;74663;-84
2022/07/02 01:42:38;;;;;;;8.30;5.00;;;;;;;21.18;63.37;101106.52;106592;1257;72652;-84
2022/07/02 01:45:08;;;;;;;6.40;5.30;;;;;;;21.14;63.80;101109.05;106659;1259;62625;-84
2022/07/02 01:47:37;;;;;;;6.60;5.40;;;;;;;21.10;64.60;101107.64;106485;1260;63397;-84
2022/07/02 01:50:07;;;;;;;11.90;5.50;;;;;;;21.06;64.10;101111.91;106589;1257;57566;-86
2022/07/02 01:52:36;;;;;;;9.50;5.10;;;;;;;21.05;63.63;101116.16;106340;1258;59095;-84
2022/07/02 01:55:06;;;;;;;12.10;5.60;;;;;;;21.03;64.43;101115.09;106290;1259;74172;-85
2022/07/02 01:57:37;;;;;;;14.70;5.30;;;;;;;21.02;65.30;101113.63;106117;1259;62584;-84
2022/07/02 02:00:11;;;;;;;11.10;5.60;;;;;;;21.03;65.25;101116.82;106494;1257;71071;-91
2022/07/02 02:02:40;;;;;;;16.30;6.20;;;;;;;21.06;65.38;101112.57;107518;1257;72742;-93
2022/07/02 02:05:09;;;;;;;8.10;5.60;;;;;;;21.11;65.14;101112.62;106727;1260;59041;-85
2022/07/02 02:07:38;;;;;;;11.00;6.00;;;;;;;21.17;65.14;101114.73;106468;1259;59266;-80
2022/07/02 02:10:08;;;;;;;11.40;6.00;;;;;;;21.24;65.16;101115.21;106436;1257;62283;-76
2022/07/02 02:12:37;;;;;;;9.70;5.90;;;;;;;21.31;64.75;101111.96;106447;1257;61674;-78
2022/07/02 02:15:06;;;;;;;13.30;6.10;;;;;;;21.40;64.90;101115.92;106415;1257;69856;-76
2022/07/02 02:17:35;;;;;;;9.50;5.70;;;;;;;21.46;64.44;101110.55;106246;1259;63654;-77
2022/07/02 02:20:05;;;;;;;9.50;6.20;;;;;;;21.49;64.62;101106.15;106433;1257;59227;-77
2022/07/02 02:22:34;;;;;;;13.70;6.50;;;;;;;21.52;65.04;101108.08;106300;1258;61957;-81
2022/07/02 02:25:03;;;;;;;7.90;6.10;;;;;;;21.54;65.09;101108.48;106505;1257;72708;-85
2022/07/02 02:27:32;;;;;;;9.60;6.20;;;;;;;21.56;64.81;101113.08;106606;1257;71842;-85
2022/07/02 02:30:01;;;;;;;12.20;6.50;;;;;;;21.58;65.17;101116.34;106598;1257;71354;-85
2022/07/02 02:32:30;;;;;;;8.70;6.20;;;;;;;21.62;64.86;101119.56;106497;1259;63693;-87
2022/07/02 02:34:59;;;;;;;12.30;6.90;;;;;;;21.65;65.07;101118.62;106734;1257;58807;-84
2022/07/02 02:37:28;;;;;;;13.10;7.30;;;;;;;21.68;65.18;101116.31;107126;1258;58659;-84
2022/07/02 02:39:57;;;;;;;10.30;6.20;;;;;;;21.74;65.30;101119.61;107341;1259;62216;-85
2022/07/02 02:42:26;;;;;;;12.40;7.30;;;;;;;21.82;65.60;101116.67;107562;1257;60879;-82
2022/07/02 02:44:55;;;;;;;10.20;8.10;;;;;;;21.91;65.48;101115.69;107251;1257;60941;-76
2022/07/02 02:47:25;;;;;;;10.20;7.70;;;;;;;21.99;65.23;101117.66;107276;1259;62887;-77
2022/07/02 02:49:53;;;;;;;10.60;7.40;;;;;;;22.07;65.62;101124.84;107699;1258;61007;-76
2022/07/02 02:52:22;;;;;;;12.40;7.40;;;;;;;22.17;65.26;101120.72;107071;1259;62342;-79
2022/07/02 02:54:51;;;;;;;16.10;7.80;;;;;;;22.29;65.28;101118.84;106684;1257;64458;-78
2022/07/02 02:57:20;;;;;;;10.40;7.70;;;;;;;22.38;65.02;101123.42;106645;1259;61690;-79
2022/07/02 02:59:49;;;;;;;15.50;8.20;;;;;;;22.47;65.01;101126.61;106461;1260;67958;-76
2022/07/02 03:02:18;;;;;;;10.10;7.80;;;;;;;22.53;64.97;101127.73;106205;1260;62565;-79
2022/07/02 03:04:47;;;;;;;9.30;8.10;;;;;;;22.56;64.89;101126.81;106588;1257;58792;-78
2022/07/02 03:07:16;;;;;;;11.40;7.50;;;;;;;22.61;64.80;101133.84;106535;1257;59100;-78
2022/07/02 03:09:45;;;;;;;10.90;7.80;;;;;;;22.67;64.86;101140.13;106443;1259;63051;-79
2022/07/02 03:12:14;;;;;;;13.40;8.20;;;;;;;22.67;65.03;101144.84;106501;1257;60929;-80
2022/07/02 03:14:43;;;;;;;10.20;7.70;;;;;;;22.70;64.93;101148.43;106480;1257;71175;-84
2022/07/02 03:17:12;;;;;;;12.30;8.50;;;;;;;22.70;65.27;101147.02;106527;1257;73824;-83
2022/07/02 03:19:40;;;;;;;10.30;8.30;;;;;;;22.72;65.11;101150.50;106536;1257;60942;-82
2022/07/02 03:22:09;;;;;;;15.70;8.00;;;;;;;22.75;65.09;101151.24;106663;1258;60925;-91
2022/07/02 03:24:38;;;;;;;10.10;7.80;;;;;;;22.74;65.09;101153.48;106609;1259;65204;-84
2022/07/02 03:27:08;;;;;;;14.10;8.10;;;;;;;22.75;65.15;101154.07;106539;1257;72340;-87
2022/07/02 03:29:37;;;;;;;10.80;7.80;;;;;;;22.79;65.15;101154.34;106506;1258;69257;-81
2022/07/02 03:32:07;;;;;;;10.80;8.10;;;;;;;22.81;65.04;101155.85;106620;1257;73529;-86
2022/07/02 03:34:35;;;;;;;12.70;8.80;;;;;;;22.84;65.20;101155.89;106780;1257;60739;-83
2022/07/02 03:37:05;;;;;;;15.60;8.40;;;;;;;22.86;65.41;101158.05;106752;1257;58618;-81
2022/07/02 03:39:34;;;;;;;16.80;8.20;;;;;;;22.91;64.81;101158.63;107274;1257;73476;-83
2022/07/02 03:42:03;;;;;;;13.90;8.40;;;;;;;22.93;65.38;101162.40;106242;1259;71740;-83
2022/07/02 03:44:32;;;;;;;15.10;9.20;;;;;;;22.95;65.44;101162.22;106595;1257;59821;-82
2022/07/02 03:47:01;;;;;;;19.10;9.40;;;;;;;22.96;66.21;101162.80;106400;1258;73481;-86
2022/07/02 03:49:30;;;;;;;17.30;8.70;;;;;;;23.00;66.39;101157.91;106634;1258;57547;-80
2022/07/02 03:51:59;;;;;;;11.40;8.60;;;;;;;23.07;66.32;101157.60;106458;1259;59012;-80
2022/07/02 03:54:28;;;;;;;14.40;9.40;;;;;;;23.13;66.10;101152.41;106574;1257;74092;-81
2022/07/02 03:56:57;;;;;;;15.90;9.70;;;;;;;23.24;65.69;101149.70;106616;1257;72867;-84
2022/07/02 03:59:26;;;;;;;12.50;8.60;;;;;;;23.33;65.34;101150.56;106621;1259;71025;-82
2022/07/02 04:01:55;;;;;;;13.60;9.00;;;;;;;23.40;65.37;101151.20;106456;1260;64468;-84
2022/07/02 04:04:24;;;;;;;18.40;9.10;;;;;;;23.49;65.02;101154.85;106536;1258;59078;-84
2022/07/02 04:06:54;;;;;;;14.20;8.70;;;;;;;23.57;64.89;101154.50;106727;1257;60549;-87
2022/07/02 04:09:23;;;;;;;15.40;9.20;;;;;;;23.64;64.98;101156.27;106418;1259;73800;-81
2022/07/02 04:11:52;;;;;;;12.70;8.50;;;;;;;23.76;64.74;101158.78;106701;1257;72435;-82
2022/07/02 04:14:21;;;;;;;11.90;8.40;;;;;;;23.84;64.46;101162.88;106483;1259;59779;-76
2022/07/02 04:16:50;;;;;;;19.10;9.60;;;;;;;23.92;64.14;101160.14;106630;1257;63249;-79
2022/07/02 04:19:19;;;;;;;12.70;8.80;;;;;;;24.01;63.89;101165.05;106547;1259;57565;-81
2022/07/02 04:21:48;;;;;;;10.90;8.80;;;;;;;24.09;63.84;101164.31;106544;1257;59840;-78
2022/07/02 04:24:17;;;;;;;10.40;8.70;;;;;;;24.15;63.67;101171.39;106662;1257;63527;-80
2022/07/02 04:26:46;;;;;;;12.90;8.90;;;;;;;24.22;63.65;101177.34;106679;1257;61568;-88
2022/07/02 04:29:15;;;;;;;12.10;8.80;;;;;;;24.34;63.36;101184.39;107794;1257;69243;-87
2022/07/02 04:31:44;;;;;;;12.20;8.50;;;;;;;24.39;63.30;101186.06;106532;1259;63034;-85
2022/07/02 04:34:13;;;;;;;15.70;8.70;;;;;;;24.46;62.96;101188.77;106920;1257;60531;-89
2022/07/02 04:36:42;;;;;;;13.40;9.50;;;;;;;24.53;62.96;101189.83;106748;1257;61693;-87
2022/07/02 04:39:10;;;;;;;14.30;9.60;;;;;;;24.59;62.71;101192.28;106718;1259;74610;-84
2022/07/02 04:41:39;;;;;;;13.10;9.50;;;;;;;24.67;62.44;101189.23;106646;1257;62367;-81
2022/07/02 04:44:08;;;;;;;17.50;10.10;;;;;;;24.70;62.31;101188.73;106409;1260;68194;-88
2022/07/02 04:46:38;;;;;;;12.90;9.20;;;;;;;24.69;61.92;101186.39;106739;1259;74042;-82
2022/07/02 04:49:07;;;;;;;14.30;9.50;;;;;;;24.79;61.66;101185.16;106696;1257;62033;-83
2022/07/02 04:51:36;;;;;;;15.80;9.80;;;;;;;24.86;61.49;101184.89;106577;1257;61664;-81
2022/07/02 04:54:05;;;;;;;15.40;11.10;;;;;;;24.94;61.29;101187.98;106447;1259;64106;-89
2022/07/02 04:56:34;;;;;;;16.10;10.40;;;;;;;25.00;61.33;101187.38;106566;1259;60925;-80
2022/07/02 04:59:04;;;;;;;15.00;10.80;;;;;;;25.06;61.00;101184.45;106376;1260;59104;-79
2022/07/02 05:01:33;;;;;;;18.80;14.10;;;;;;;25.16;60.79;101178.60;106507;1259;63638;-81
2022/07/02 05:04:03;;;;;;;17.40;11.40;;;;;;;25.20;60.68;101173.73;106362;1260;61701;-80
2022/07/02 05:06:32;;;;;;;14.90;9.90;;;;;;;25.34;60.37;101175.22;106744;1258;60830;-84
2022/07/02 05:09:03;;;;;;;14.40;10.30;;;;;;;25.44;60.11;101171.98;106173;1260;690219;-85
2022/07/02 05:11:33;;;;;;;11.80;9.80;;;;;;;25.52;59.83;101170.06;107177;1259;71406;-83
2022/07/02 05:14:02;;;;;;;12.40;9.30;;;;;;;25.65;59.31;101171.02;106729;1259;70731;-82
2022/07/02 05:16:31;;;;;;;15.90;9.40;;;;;;;25.75;59.31;101171.84;106654;1257;63449;-85
2022/07/02 05:19:00;;;;;;;11.90;9.50;;;;;;;25.85;59.02;101172.70;106301;1259;59082;-87
2022/07/02 05:21:29;;;;;;;17.30;10.90;;;;;;;25.96;58.76;101173.87;106500;1258;59135;-85
2022/07/02 05:23:58;;;;;;;12.50;9.00;;;;;;;26.10;58.30;101173.89;106490;1257;72049;-79
2022/07/02 05:26:28;;;;;;;10.20;9.00;;;;;;;26.18;57.85;101171.37;106392;1257;73166;-79
2022/07/02 05:28:59;;;;;;;12.90;9.00;;;;;;;26.26;56.94;101177.77;106432;1257;69543;-76
2022/07/02 05:31:29;;;;;;;12.20;8.70;;;;;;;26.35;56.87;101182.86;106141;1259;73823;-80
2022/07/02 05:33:59;;;;;;;12.90;8.40;;;;;;;26.42;56.39;101184.26;106120;1260;59096;-74
2022/07/02 05:36:29;;;;;;;11.60;8.10;;;;;;;26.47;56.10;101181.30;106066;1259;59695;-83
2022/07/02 05:38:58;;;;;;;12.30;8.70;;;;;;;26.58;55.71;101182.55;106418;1259;62299;-78
2022/07/02 05:41:28;;;;;;;12.20;8.30;;;;;;;26.69;55.41;101181.82;106128;1260;62927;-82
2022/07/02 05:43:57;;;;;;;11.40;8.00;;;;;;;26.81;55.15;101177.61;106128;1259;59164;-79
2022/07/02 05:46:26;;;;;;;11.50;8.10;;;;;;;26.95;54.31;101178.27;106020;1259;72532;-82
2022/07/02 05:48:58;;;;;;;10.40;7.70;;;;;;;27.00;53.76;101179.55;106384;1259;61065;-79
2022/07/02 05:51:27;;;;;;;13.50;7.90;;;;;;;27.11;53.42;101176.14;106169;1260;61864;-81
2022/07/02 05:54:02;;;;;;;13.50;8.40;;;;;;;27.26;53.16;101175.50;106697;1258;61959;-85
2022/07/02 05:56:31;;;;;;;11.40;8.00;;;;;;;27.39;53.30;101171.71;106715;1257;61954;-83
2022/07/02 05:59:00;;;;;;;13.30;8.40;;;;;;;27.50;53.42;101173.65;106521;1259;59628;-81
2022/07/02 06:01:30;;;;;;;10.90;8.00;;;;;;;27.59;53.28;101178.42;106476;1259;62960;-93
2022/07/02 06:03:59;;;;;;;11.60;8.50;;;;;;;27.73;53.31;101186.58;106664;1258;60625;-75
2022/07/02 06:09:16;;;;;;;12.00;7.90;;;;;;;27.85;52.94;101186.36;106708;1262;62829;-85
2022/07/02 06:11:45;;;;;;;12.50;8.30;;;;;;;27.96;52.33;101189.73;106843;1260;71389;-85
2022/07/02 06:14:15;;;;;;;13.40;8.80;;;;;;;28.01;51.53;101191.94;106416;1261;71159;-80
2022/07/02 06:16:44;;;;;;;11.60;8.40;;;;;;;28.12;51.82;101194.36;107327;1261;64106;-83
2022/07/02 06:19:16;;;;;;;13.20;8.10;;;;;;;28.21;51.93;101194.16;107210;1260;60577;-87
2022/07/02 06:21:45;;;;;;;8.90;7.70;;;;;;;28.35;51.14;101194.42;106118;1263;59177;-75
2022/07/02 06:24:14;;;;;;;10.70;6.50;;;;;;;28.35;49.17;101193.04;106378;1261;63214;-79
2022/07/02 06:26:43;;;;;;;16.70;7.00;;;;;;;28.44;47.91;101193.08;106356;1261;60995;-76
2022/07/02 06:29:13;;;;;;;10.60;6.80;;;;;;;28.51;46.84;101194.23;106416;1261;70774;-75
2022/07/02 06:31:43;;;;;;;10.80;7.50;;;;;;;28.58;46.10;101197.95;105926;1261;65806;-77
2022/07/02 06:34:13;;;;;;;9.60;7.30;;;;;;;28.69;45.93;101194.77;106288;1261;62989;-77
2022/07/02 06:36:43;;;;;;;12.20;6.90;;;;;;;28.76;45.67;101195.71;106273;1261;59075;-77
2022/07/02 06:39:12;;;;;;;11.00;6.50;;;;;;;28.84;45.80;101196.34;106570;1259;62253;-78
2022/07/02 06:44:28;;;;;;;8.50;6.70;;;;;;;28.95;45.41;101189.08;106546;1261;70415;-77
2022/07/02 06:46:57;;;;;;;10.60;6.00;;;;;;;28.97;44.71;101189.85;106345;1261;73230;-77
2022/07/02 06:49:27;;;;;;;8.20;5.70;;;;;;;28.95;44.30;101183.83;106162;1262;62244;-67
2022/07/02 06:51:56;;;;;;;8.10;6.60;;;;;;;28.96;43.98;101179.27;106002;1259;62395;-70
2022/07/02 06:54:24;;;;;;;8.30;5.30;;;;;;;29.19;44.25;101185.24;106330;1261;74481;-70
2022/07/02 06:56:53;;;;;;;9.00;6.70;;;;;;;29.30;43.78;101184.02;106269;1260;62090;-71
2022/07/02 06:59:22;;;;;;;12.50;9.20;;;;;;;29.34;43.58;101183.88;106399;1260;59316;-67
2022/07/02 07:01:51;;;;;;;12.70;9.20;;;;;;;29.55;44.22;101187.66;106369;1259;63498;-68
2022/07/02 07:04:42;;;;;;;10.80;6.70;;;;;;;29.75;43.55;101187.91;106342;1259;59226;-68
2022/07/02 07:07:11;;;;;;;11.30;7.40;;;;;;;29.87;43.08;101192.98;106422;1259;61455;-74
2022/07/02 07:09:41;;;;;;;11.30;6.90;;;;;;;30.01;43.35;101193.30;106565;1258;65246;-73
2022/07/02 07:12:11;;;;;;;9.50;7.60;;;;;;;29.98;42.71;101192.31;106384;1258;72672;-78
2022/07/02 07:14:40;;;;;;;12.30;7.80;;;;;;;30.08;42.01;101189.58;106196;1260;69734;-76
2022/07/02 07:17:10;;;;;;;10.60;6.00;;;;;;;30.16;41.64;101188.41;106559;1258;63263;-79
2022/07/02 07:19:39;;;;;;;9.20;6.00;;;;;;;30.29;41.42;101192.48;106182;1262;58245;-77
2022/07/02 07:22:09;;;;;;;9.30;6.10;;;;;;;30.37;40.90;101191.02;106542;1258;59354;-76
2022/07/02 07:24:37;;;;;;;9.30;5.70;;;;;;;30.38;40.24;101191.62;106483;1258;73692;-77
2022/07/02 07:27:07;;;;;;;8.60;6.00;;;;;;;30.38;40.22;101199.33;106657;1258;71535;-80
2022/07/02 07:29:36;;;;;;;9.00;6.20;;;;;;;30.35;40.27;101201.48;106586;1259;70478;-75
2022/07/02 07:32:05;;;;;;;8.90;6.30;;;;;;;30.47;40.39;101200.89;106519;1259;74011;-82
2022/07/02 07:34:41;;;;;;;7.10;5.90;;;;;;;30.60;40.28;101198.23;106614;1258;58883;-78
2022/07/02 07:37:12;;;;;;;8.50;6.00;;;;;;;30.71;40.04;101197.72;106362;1259;59033;-78
2022/07/02 07:39:41;;;;;;;7.60;6.40;;;;;;;30.83;39.74;101198.98;106622;1258;73683;-79
2022/07/02 07:42:10;;;;;;;6.90;6.20;;;;;;;30.74;39.79;101204.08;106603;1258;62057;-77
2022/07/02 07:44:39;;;;;;;8.90;6.00;;;;;;;30.58;40.21;101205.87;106498;1260;69794;-76
2022/07/02 07:47:08;;;;;;;7.40;6.20;;;;;;;30.86;40.07;101203.02;106568;1258;63743;-74
2022/07/02 07:49:36;;;;;;;9.70;6.00;;;;;;;30.98;38.97;101207.58;106533;1259;61309;-72
2022/07/02 07:52:06;;;;;;;8.90;6.50;;;;;;;31.01;39.24;101210.59;106550;1259;58300;-73
2022/07/02 07:54:34;;;;;;;7.50;6.20;;;;;;;31.19;38.86;101211.05;106698;1258;64511;-72
2022/07/02 07:57:04;;;;;;;12.30;7.20;;;;;;;31.27;38.35;101212.47;106663;1259;60748;-78
2022/07/02 07:59:33;;;;;;;7.30;6.20;;;;;;;31.30;38.25;101215.20;106553;1259;70947;-72
2022/07/02 08:02:01;;;;;;;6.50;5.70;;;;;;;31.32;37.84;101217.02;106693;1259;64533;-72
2022/07/02 08:04:30;;;;;;;7.20;6.40;;;;;;;31.24;38.31;101218.56;106750;1257;59158;-79
2022/07/02 08:06:59;;;;;;;9.90;6.10;;;;;;;31.06;38.90;101220.38;106505;1259;59122;-72
2022/07/02 08:09:28;;;;;;;6.50;5.90;;;;;;;31.02;39.34;101227.31;106955;1255;63135;-75
2022/07/02 08:11:57;;;;;;;9.10;6.40;;;;;;;30.89;39.42;101225.80;106713;1256;72439;-70
2022/07/02 08:14:26;;;;;;;11.50;6.20;;;;;;;30.88;38.76;101227.02;106532;1256;60019;-74
2022/07/02 08:16:54;;;;;;;8.00;6.40;;;;;;;30.90;38.53;101227.36;106821;1255;73157;-73
2022/07/02 08:19:23;;;;;;;10.10;6.00;;;;;;;30.86;38.42;101225.59;106859;1256;58749;-73
2022/07/02 08:21:52;;;;;;;8.90;5.80;;;;;;;31.02;38.45;101224.34;106876;1255;57707;-74
2022/07/02 08:24:21;;;;;;;5.70;5.10;;;;;;;31.39;37.64;101223.48;106852;1255;73640;-72
2022/07/02 08:26:49;;;;;;;9.00;5.30;;;;;;;31.50;36.63;101222.48;106819;1256;62416;-73
2022/07/02 08:29:19;;;;;;;7.30;4.80;;;;;;;31.69;35.17;101217.77;106827;1256;59139;-78
2022/07/02 08:31:48;;;;;;;6.00;4.90;;;;;;;32.07;33.36;101222.91;106717;1258;63801;-77
2022/07/02 08:34:17;;;;;;;6.70;3.90;;;;;;;32.17;31.63;101221.11;106798;1256;61288;-72
2022/07/02 08:36:45;;;;;;;5.60;4.80;;;;;;;32.24;32.29;101222.53;106845;1256;61038;-76
2022/07/02 08:39:14;;;;;;;8.50;4.50;;;;;;;32.11;32.46;101223.10;106844;1255;63364;-78
2022/07/02 08:41:46;;;;;;;5.80;3.70;;;;;;;32.08;32.29;101230.19;106587;1258;61609;-73
2022/07/02 08:44:20;;;;;;;7.50;4.60;;;;;;;32.37;32.03;101228.11;106773;1256;69796;-74
2022/07/02 08:46:50;;;;;;;6.20;4.70;;;;;;;32.64;32.04;101229.86;106464;1257;72881;-76
2022/07/02 08:49:21;;;;;;;7.80;4.50;;;;;;;32.72;31.13;101225.89;106636;1256;61347;-73
2022/07/02 08:54:31;;;;;;;7.30;4.20;;;;;;;33.15;30.43;101228.48;106747;1256;73796;-73
2022/07/02 08:57:03;;;;;;;6.50;3.80;;;;;;;33.27;29.61;101227.77;106767;1258;62705;-68
2022/07/02 08:59:33;;;;;;;4.90;4.30;;;;;;;33.12;28.75;101226.75;106702;1257;59914;-72
2022/07/02 09:02:02;;;;;;;17.50;4.40;;;;;;;32.91;28.84;101225.02;107043;1256;72953;-72
2022/07/02 09:04:34;;;;;;;6.60;4.10;;;;;;;33.10;28.65;101231.54;107478;1257;58779;-73
2022/07/02 09:07:04;;;;;;;5.60;3.90;;;;;;;33.52;27.75;101234.27;107431;1256;60500;-84
2022/07/02 09:09:35;;;;;;;4.30;3.80;;;;;;;33.71;27.36;101235.92;106891;1256;73463;-83
2022/07/02 09:12:15;;;;;;;5.50;3.80;;;;;;;33.89;26.91;101233.77;106914;1256;61570;-88
2022/07/02 09:14:44;;;;;;;4.40;3.40;;;;;;;33.97;26.79;101228.65;107085;1258;59299;-87
2022/07/02 09:17:13;;;;;;;5.70;3.50;;;;;;;34.15;26.93;101225.61;107132;1259;63378;-84
2022/07/02 09:19:45;;;;;;;5.50;3.50;;;;;;;34.42;26.39;101220.46;106714;1259;59832;-85
2022/07/02 09:22:16;;;;;;;4.50;3.00;;;;;;;34.30;25.67;101218.45;107144;1255;58793;-78
2022/07/02 09:24:45;;;;;;;9.30;3.60;;;;;;;34.43;26.17;101224.05;106848;1255;62207;-83
2022/07/02 09:27:16;;;;;;;7.20;3.40;;;;;;;34.67;25.38;101222.33;106629;1256;70420;-78
2022/07/02 09:29:52;;;;;;;7.30;3.50;;;;;;;34.59;25.25;101217.59;106745;1256;71201;-84
2022/07/02 09:32:22;;;;;;;4.50;3.40;;;;;;;34.64;25.71;101218.60;106836;1256;63057;-79
2022/07/02 09:34:53;;;;;;;5.60;3.60;;;;;;;34.47;25.50;101216.39;106635;1258;61780;-80
2022/07/02 09:37:25;;;;;;;5.60;3.20;;;;;;;34.57;25.42;101216.33;106657;1258;58928;-76
2022/07/02 09:39:59;;;;;;;7.20;3.60;;;;;;;34.46;25.31;101218.08;106859;1255;73787;-80
2022/07/02 09:42:32;;;;;;;6.30;3.20;;;;;;;34.60;25.83;101215.70;106895;1256;62080;-76
2022/07/02 09:45:04;;;;;;;9.00;3.90;;;;;;;34.83;25.54;101216.15;106797;1256;70020;-82
2022/07/02 09:47:48;;;;;;;4.70;3.00;;;;;;;34.91;25.25;101215.73;106767;1256;74455;-80
2022/07/02 09:50:21;;;;;;;7.80;3.50;;;;;;;35.02;25.16;101214.80;106779;1256;59147;-78
2022/07/02 09:52:56;;;;;;;8.60;3.70;;;;;;;35.17;24.73;101212.39;107003;1256;61425;-74
2022/07/02 09:55:31;;;;;;;7.10;3.30;;;;;;;35.09;24.84;101216.02;106993;1255;74111;-79
2022/07/02 09:58:02;;;;;;;4.80;3.70;;;;;;;34.93;25.17;101226.39;106671;1256;63702;-78
2022/07/02 10:00:41;;;;;;;7.80;3.40;;;;;;;35.11;25.06;101226.02;106582;1259;72408;-76
2022/07/02 10:03:11;;;;;;;8.00;4.10;;;;;;;35.27;24.50;101221.90;106825;1255;74389;-78
2022/07/02 10:05:54;;;;;;;5.00;3.30;;;;;;;35.09;25.01;101223.73;106752;1258;58308;-78
2022/07/02 10:08:24;;;;;;;5.00;3.30;;;;;;;35.30;24.82;101222.23;106782;1256;59164;-80
2022/07/02 10:10:53;;;;;;;8.60;5.00;;;;;;;35.40;24.78;101216.86;106822;1258;73658;-78
2022/07/02 10:13:23;;;;;;;5.30;3.80;;;;;;;34.87;25.70;101220.69;106631;1257;72047;-78
2022/07/02 10:16:02;;;;;;;5.60;4.30;;;;;;;34.90;26.21;101224.57;106708;1256;70405;-77
2022/07/02 10:18:34;;;;;;;4.80;3.80;;;;;;;34.58;26.23;101220.48;106726;1257;73927;-80
2022/07/02 10:21:03;;;;;;;;;;;;;;;34.30;26.75;101226.80;106744;1256;58923;-78
2022/07/02 10:23:34;;;;;;;8.60;3.90;;;;;;;34.30;26.58;101227.77;106913;1257;59051;-80
2022/07/02 10:26:03;;;;;;;5.40;3.60;;;;;;;34.64;26.86;101223.48;106866;1256;73666;-81
2022/07/02 10:28:34;;;;;;;5.20;3.90;;;;;;;35.10;26.50;101224.29;106408;1259;72439;-83
2022/07/02 10:31:06;;;;;;;5.30;3.50;;;;;;;35.60;25.88;101226.36;106758;1256;60447;-75
2022/07/02 10:34:04;;;;;;;6.90;4.80;;;;;;;35.94;24.84;101221.58;106697;1257;72464;-78
2022/07/02 10:36:34;;;;;;;5.90;3.70;;;;;;;35.97;24.84;101224.60;106540;1259;57818;-75
2022/07/02 10:39:03;;;;;;;7.70;4.50;;;;;;;35.96;24.60;101221.67;106674;1259;58916;-81
2022/07/02 10:41:33;;;;;;;7.50;3.50;;;;;;;36.22;24.33;101214.23;106830;1257;62988;-74
2022/07/02 10:44:02;;;;;;;4.70;3.40;;;;;;;36.10;24.51;101213.19;106778;1255;62769;-77
2022/07/02 10:46:35;;;;;;;5.10;3.40;;;;;;;36.03;24.36;101205.21;106877;1257;62129;-79
2022/07/02 10:49:07;;;;;;;6.00;3.60;;;;;;;36.24;24.40;101210.96;106554;1256;63752;-80
2022/07/02 10:51:36;;;;;;;8.60;3.50;;;;;;;36.44;23.59;101213.61;106838;1255;59193;-80
2022/07/02 10:54:07;;;;;;;4.90;3.40;;;;;;;36.71;23.54;101216.23;106816;1255;58321;-79
2022/07/02 10:56:51;;;;;;;7.10;4.00;;;;;;;37.15;23.18;101212.27;106865;1256;62788;-82
2022/07/02 10:59:25;;;;;;;5.50;3.80;;;;;;;37.14;22.87;101214.56;106735;1259;72419;-77
2022/07/02 11:02:07;;;;;;;6.70;3.40;;;;;;;37.44;22.50;101211.11;106604;1258;59716;-77
2022/07/02 11:04:38;;;;;;;8.20;3.70;;;;;;;37.28;21.75;101211.10;106482;1256;74120;-82
2022/07/02 11:07:12;;;;;;;5.10;3.30;;;;;;;37.35;21.87;101209.28;106404;1259;57462;-79
2022/07/02 11:09:57;;;;;;;5.90;3.20;;;;;;;37.46;21.77;101207.29;106494;1259;59231;-78
2022/07/02 11:12:43;;;;;;;4.50;2.90;;;;;;;37.53;21.69;101203.13;106797;1258;74144;-80
2022/07/02 11:15:28;;;;;;;4.30;3.60;;;;;;;37.33;21.71;101199.80;106773;1256;72914;-75
2022/07/02 11:18:01;;;;;;;5.10;3.80;;;;;;;37.05;22.56;101208.21;106546;1257;62103;-80
2022/07/02 11:20:34;;;;;;;5.20;3.40;;;;;;;36.98;22.27;101202.77;106597;1259;63802;-81
2022/07/02 11:23:04;;;;;;;3.50;3.00;;;;;;;37.11;22.42;101204.60;106468;1259;58909;-81
2022/07/02 11:25:33;;;;;;;5.60;3.10;;;;;;;36.58;21.92;101198.58;106852;1256;61236;-78
2022/07/02 11:28:03;;;;;;;6.30;3.30;;;;;;;36.97;21.94;101197.98;106872;1258;73224;-78
2022/07/02 11:30:33;;;;;;;4.60;3.50;;;;;;;37.35;21.72;101199.48;106699;1258;72146;-78
2022/07/02 11:33:13;;;;;;;6.10;3.10;;;;;;;37.62;21.41;101195.33;106690;1259;59909;-81
2022/07/02 11:35:43;;;;;;;4.00;3.20;;;;;;;38.29;20.68;101198.19;106955;1255;62946;-79
2022/07/02 11:38:12;;;;;;;7.00;3.30;;;;;;;38.52;20.44;101197.52;106942;1256;59153;-78